sensor_id;sensor_type;location;lat;lon;timestamp;pressure;altitude;pressure_sealevel;temperature;humidity
83716;BME280;73698;51.138;6.950;2024-02-23T00:01:07;98477.75;;;6.00;77.51
83716;BME280;73698;51.138;6.950;2024-02-23T00:03:33;98484.66;;;5.92;76.77
83716;BME280;73698;51.138;6.950;2024-02-23T00:06:01;98495.72;;;5.87;76.95
83716;BME280;73698;51.138;6.950;2024-02-23T00:08:26;98514.19;;;5.79;77.40
83716;BME280;73698;51.138;6.950;2024-02-23T00:10:52;98535.66;;;5.77;77.96
83716;BME280;73698;51.138;6.950;2024-02-23T00:13:17;98542.16;;;5.84;77.61
83716;BME280;73698;51.138;6.950;2024-02-23T00:15:42;98537.69;;;5.85;76.54
83716;BME280;73698;51.138;6.950;2024-02-23T00:18:09;98553.78;;;5.83;76.07
83716;BME280;73698;51.138;6.950;2024-02-23T00:20:34;98554.91;;;5.81;76.39
83716;BME280;73698;51.138;6.950;2024-02-23T00:23:00;98545.00;;;5.72;76.74
83716;BME280;73698;51.138;6.950;2024-02-23T00:25:25;98554.84;;;5.60;76.48
83716;BME280;73698;51.138;6.950;2024-02-23T00:27:50;98565.91;;;5.44;77.81
83716;BME280;73698;51.138;6.950;2024-02-23T00:30:16;98570.28;;;5.34;78.78
83716;BME280;73698;51.138;6.950;2024-02-23T00:32:41;98574.69;;;5.24;78.94
83716;BME280;73698;51.138;6.950;2024-02-23T00:35:07;98578.06;;;5.14;79.11
83716;BME280;73698;51.138;6.950;2024-02-23T00:37:32;98584.97;;;5.06;79.76
83716;BME280;73698;51.138;6.950;2024-02-23T00:40:02;98589.09;;;4.99;80.98
83716;BME280;73698;51.138;6.950;2024-02-23T00:42:29;98582.22;;;4.96;80.52
83716;BME280;73698;51.138;6.950;2024-02-23T00:44:55;98585.72;;;4.97;80.82
83716;BME280;73698;51.138;6.950;2024-02-23T00:47:20;98597.59;;;4.93;80.37
83716;BME280;73698;51.138;6.950;2024-02-23T00:49:46;98601.19;;;4.92;79.96
83716;BME280;73698;51.138;6.950;2024-02-23T00:52:11;98601.19;;;4.92;80.49
83716;BME280;73698;51.138;6.950;2024-02-23T00:54:36;98612.34;;;4.97;79.55
83716;BME280;73698;51.138;6.950;2024-02-23T00:57:02;98613.91;;;4.99;79.62
83716;BME280;73698;51.138;6.950;2024-02-23T00:59:27;98618.28;;;5.00;79.57
83716;BME280;73698;51.138;6.950;2024-02-23T01:01:54;98627.97;;;5.01;79.98
83716;BME280;73698;51.138;6.950;2024-02-23T01:04:20;98625.06;;;5.04;79.91
83716;BME280;73698;51.138;6.950;2024-02-23T01:06:45;98640.06;;;5.05;79.01
83716;BME280;73698;51.138;6.950;2024-02-23T01:09:11;98638.50;;;5.03;78.76
83716;BME280;73698;51.138;6.950;2024-02-23T01:11:36;98637.88;;;4.99;79.85
83716;BME280;73698;51.138;6.950;2024-02-23T01:14:02;98642.59;;;4.96;79.13
83716;BME280;73698;51.138;6.950;2024-02-23T01:16:27;98661.13;;;4.97;79.07
83716;BME280;73698;51.138;6.950;2024-02-23T01:18:52;98654.13;;;4.96;79.76
83716;BME280;73698;51.138;6.950;2024-02-23T01:21:18;98669.84;;;4.99;79.28
83716;BME280;73698;51.138;6.950;2024-02-23T01:23:43;98677.59;;;5.02;78.84
83716;BME280;73698;51.138;6.950;2024-02-23T01:26:09;98672.16;;;5.04;79.49
83716;BME280;73698;51.138;6.950;2024-02-23T01:28:35;98671.91;;;5.07;79.29
83716;BME280;73698;51.138;6.950;2024-02-23T01:31:00;98670.22;;;5.06;77.88
83716;BME280;73698;51.138;6.950;2024-02-23T01:33:26;98682.47;;;5.08;78.41
83716;BME280;73698;51.138;6.950;2024-02-23T01:35:51;98680.78;;;5.07;78.27
83716;BME280;73698;51.138;6.950;2024-02-23T01:38:17;98684.63;;;5.03;78.69
83716;BME280;73698;51.138;6.950;2024-02-23T01:40:46;98680.50;;;4.99;78.88
83716;BME280;73698;51.138;6.950;2024-02-23T01:43:12;98685.94;;;4.98;77.70
83716;BME280;73698;51.138;6.950;2024-02-23T01:45:37;98687.63;;;4.99;77.59
83716;BME280;73698;51.138;6.950;2024-02-23T01:48:03;98680.50;;;4.99;78.24
83716;BME280;73698;51.138;6.950;2024-02-23T01:50:29;98688.84;;;4.95;78.11
83716;BME280;73698;51.138;6.950;2024-02-23T01:52:57;98704.72;;;4.96;78.33
83716;BME280;73698;51.138;6.950;2024-02-23T01:55:24;98698.53;;;4.96;78.05
83716;BME280;73698;51.138;6.950;2024-02-23T01:57:49;98706.16;;;4.89;78.25
83716;BME280;73698;51.138;6.950;2024-02-23T02:00:17;98709.19;;;4.84;78.41
83716;BME280;73698;51.138;6.950;2024-02-23T02:02:47;98711.47;;;4.89;77.44
83716;BME280;73698;51.138;6.950;2024-02-23T02:05:12;98706.63;;;4.94;77.78
83716;BME280;73698;51.138;6.950;2024-02-23T02:07:40;98715.47;;;4.95;78.42
83716;BME280;73698;51.138;6.950;2024-02-23T02:10:08;98704.97;;;5.04;77.93
83716;BME280;73698;51.138;6.950;2024-02-23T02:12:34;98712.47;;;5.10;78.01
83716;BME280;73698;51.138;6.950;2024-02-23T02:15:00;98706.69;;;5.17;77.32
83716;BME280;73698;51.138;6.950;2024-02-23T02:17:27;98719.88;;;5.18;77.54
83716;BME280;73698;51.138;6.950;2024-02-23T02:19:53;98709.13;;;5.20;77.52
83716;BME280;73698;51.138;6.950;2024-02-23T02:22:18;98717.34;;;5.17;77.32
83716;BME280;73698;51.138;6.950;2024-02-23T02:24:44;98707.66;;;5.16;77.78
83716;BME280;73698;51.138;6.950;2024-02-23T02:27:12;98728.22;;;5.13;76.95
83716;BME280;73698;51.138;6.950;2024-02-23T02:29:37;98720.81;;;5.06;76.75
83716;BME280;73698;51.138;6.950;2024-02-23T02:32:03;98724.81;;;5.00;77.13
83716;BME280;73698;51.138;6.950;2024-02-23T02:34:28;98725.16;;;4.96;77.72
83716;BME280;73698;51.138;6.950;2024-02-23T02:36:55;98722.63;;;4.94;77.48
83716;BME280;73698;51.138;6.950;2024-02-23T02:39:20;98725.88;;;4.86;77.56
83716;BME280;73698;51.138;6.950;2024-02-23T02:41:47;98730.72;;;4.81;77.97
83716;BME280;73698;51.138;6.950;2024-02-23T02:44:13;98737.94;;;4.79;77.86
83716;BME280;73698;51.138;6.950;2024-02-23T02:46:39;98731.78;;;4.79;78.09
83716;BME280;73698;51.138;6.950;2024-02-23T02:49:04;98739.63;;;4.80;76.78
83716;BME280;73698;51.138;6.950;2024-02-23T02:51:30;98752.84;;;4.82;77.28
83716;BME280;73698;51.138;6.950;2024-02-23T02:53:55;98745.47;;;4.85;76.65
83716;BME280;73698;51.138;6.950;2024-02-23T02:56:20;98743.28;;;4.79;76.79
83716;BME280;73698;51.138;6.950;2024-02-23T02:58:46;98748.09;;;4.74;77.06
83716;BME280;73698;51.138;6.950;2024-02-23T03:01:11;98762.22;;;4.63;77.65
83716;BME280;73698;51.138;6.950;2024-02-23T03:03:37;98766.06;;;4.59;78.33
83716;BME280;73698;51.138;6.950;2024-02-23T03:06:03;98757.13;;;4.60;77.90
83716;BME280;73698;51.138;6.950;2024-02-23T03:08:28;98762.44;;;4.60;77.73
83716;BME280;73698;51.138;6.950;2024-02-23T03:10:53;98762.78;;;4.56;78.13
83716;BME280;73698;51.138;6.950;2024-02-23T03:13:19;98759.28;;;4.55;78.31
83716;BME280;73698;51.138;6.950;2024-02-23T03:15:45;98766.91;;;4.60;78.29
83716;BME280;73698;51.138;6.950;2024-02-23T03:18:10;98762.34;;;4.62;78.30
83716;BME280;73698;51.138;6.950;2024-02-23T03:20:36;98765.63;;;4.65;77.64
83716;BME280;73698;51.138;6.950;2024-02-23T03:23:01;98765.63;;;4.65;77.92
83716;BME280;73698;51.138;6.950;2024-02-23T03:25:29;98772.75;;;4.65;77.74
83716;BME280;73698;51.138;6.950;2024-02-23T03:27:54;98759.69;;;4.62;77.35
83716;BME280;73698;51.138;6.950;2024-02-23T03:30:19;98766.69;;;4.63;76.89
83716;BME280;73698;51.138;6.950;2024-02-23T03:32:45;98772.75;;;4.65;77.11
83716;BME280;73698;51.138;6.950;2024-02-23T03:35:12;98762.84;;;4.67;76.52
83716;BME280;73698;51.138;6.950;2024-02-23T03:37:38;98769.97;;;4.67;76.65
83716;BME280;73698;51.138;6.950;2024-02-23T03:40:05;98768.59;;;4.61;76.20
83716;BME280;73698;51.138;6.950;2024-02-23T03:42:31;98781.41;;;4.56;76.21
83716;BME280;73698;51.138;6.950;2024-02-23T03:44:56;98779.81;;;4.53;76.61
83716;BME280;73698;51.138;6.950;2024-02-23T03:47:22;98771.00;;;4.53;76.33
83716;BME280;73698;51.138;6.950;2024-02-23T03:49:47;98771.00;;;4.53;76.29
83716;BME280;73698;51.138;6.950;2024-02-23T03:52:12;98780.06;;;4.50;75.76
83716;BME280;73698;51.138;6.950;2024-02-23T03:54:38;98785.72;;;4.46;76.08
83716;BME280;73698;51.138;6.950;2024-02-23T03:57:03;98781.59;;;4.41;75.80
83716;BME280;73698;51.138;6.950;2024-02-23T03:59:29;98783.53;;;4.39;76.28
83716;BME280;73698;51.138;6.950;2024-02-23T04:01:54;98798.84;;;4.36;76.11
83716;BME280;73698;51.138;6.950;2024-02-23T04:04:20;98795.44;;;4.34;76.33
83716;BME280;73698;51.138;6.950;2024-02-23T04:06:45;98793.88;;;4.31;76.67
83716;BME280;73698;51.138;6.950;2024-02-23T04:09:11;98807.06;;;4.33;77.00
83716;BME280;73698;51.138;6.950;2024-02-23T04:11:36;98802.50;;;4.35;76.84
83716;BME280;73698;51.138;6.950;2024-02-23T04:14:02;98803.13;;;4.38;77.15
83716;BME280;73698;51.138;6.950;2024-02-23T04:16:27;98804.59;;;4.43;76.49
83716;BME280;73698;51.138;6.950;2024-02-23T04:18:54;98807.13;;;4.44;76.36
83716;BME280;73698;51.138;6.950;2024-02-23T04:21:20;98803.28;;;4.48;76.24
83716;BME280;73698;51.138;6.950;2024-02-23T04:23:45;98816.25;;;4.53;76.77
83716;BME280;73698;51.138;6.950;2024-02-23T04:26:11;98820.28;;;4.58;76.02
83716;BME280;73698;51.138;6.950;2024-02-23T04:28:40;98813.75;;;4.62;75.81
83716;BME280;73698;51.138;6.950;2024-02-23T04:31:06;98818.63;;;4.69;76.02
83716;BME280;73698;51.138;6.950;2024-02-23T04:33:31;98817.41;;;4.73;75.73
83716;BME280;73698;51.138;6.950;2024-02-23T04:35:58;98815.38;;;4.76;75.95
83716;BME280;73698;51.138;6.950;2024-02-23T04:38:23;98815.16;;;4.79;75.35
83716;BME280;73698;51.138;6.950;2024-02-23T04:40:48;98812.28;;;4.82;75.16
83716;BME280;73698;51.138;6.950;2024-02-23T04:43:14;98810.38;;;4.84;75.12
83716;BME280;73698;51.138;6.950;2024-02-23T04:45:39;98814.72;;;4.85;74.58
83716;BME280;73698;51.138;6.950;2024-02-23T04:48:05;98818.84;;;4.89;74.91
83716;BME280;73698;51.138;6.950;2024-02-23T04:50:30;98816.66;;;4.95;74.56
83716;BME280;73698;51.138;6.950;2024-02-23T04:52:56;98823.69;;;4.96;74.16
83716;BME280;73698;51.138;6.950;2024-02-23T04:55:21;98830.13;;;4.93;74.31
83716;BME280;73698;51.138;6.950;2024-02-23T04:57:46;98830.00;;;4.95;75.57
83716;BME280;73698;51.138;6.950;2024-02-23T05:00:12;98830.00;;;4.95;74.14
83716;BME280;73698;51.138;6.950;2024-02-23T05:02:37;98829.75;;;4.98;74.22
83716;BME280;73698;51.138;6.950;2024-02-23T05:05:03;98825.41;;;4.97;74.02
83716;BME280;73698;51.138;6.950;2024-02-23T05:07:32;98834.34;;;4.96;74.34
83716;BME280;73698;51.138;6.950;2024-02-23T05:09:58;98839.66;;;4.96;74.19
83716;BME280;73698;51.138;6.950;2024-02-23T05:12:23;98835.09;;;4.98;74.33
83716;BME280;73698;51.138;6.950;2024-02-23T05:14:49;98844.56;;;5.02;74.82
83716;BME280;73698;51.138;6.950;2024-02-23T05:17:14;98841.75;;;5.03;73.32
83716;BME280;73698;51.138;6.950;2024-02-23T05:19:40;98840.81;;;5.04;73.76
83716;BME280;73698;51.138;6.950;2024-02-23T05:22:05;98841.88;;;5.02;73.98
83716;BME280;73698;51.138;6.950;2024-02-23T05:24:30;98839.09;;;5.03;74.59
83716;BME280;73698;51.138;6.950;2024-02-23T05:26:56;98838.50;;;5.00;73.59
83716;BME280;73698;51.138;6.950;2024-02-23T05:29:23;98842.72;;;5.02;73.64
83716;BME280;73698;51.138;6.950;2024-02-23T05:31:51;98844.56;;;5.02;73.90
83716;BME280;73698;51.138;6.950;2024-02-23T05:34:17;98835.94;;;4.98;74.70
83716;BME280;73698;51.138;6.950;2024-02-23T05:36:43;98839.44;;;4.99;74.29
83716;BME280;73698;51.138;6.950;2024-02-23T05:39:09;98838.38;;;5.01;74.22
83716;BME280;73698;51.138;6.950;2024-02-23T05:41:35;98837.63;;;4.99;73.57
83716;BME280;73698;51.138;6.950;2024-02-23T05:44:03;98835.94;;;4.98;73.66
83716;BME280;73698;51.138;6.950;2024-02-23T05:46:36;98832.22;;;5.01;73.69
83716;BME280;73698;51.138;6.950;2024-02-23T05:49:02;98830.50;;;5.00;74.02
83716;BME280;73698;51.138;6.950;2024-02-23T05:51:29;98825.41;;;4.97;73.79
83716;BME280;73698;51.138;6.950;2024-02-23T05:53:56;98828.16;;;4.95;74.76
83716;BME280;73698;51.138;6.950;2024-02-23T05:56:22;98835.31;;;4.95;74.75
83716;BME280;73698;51.138;6.950;2024-02-23T05:58:49;98835.44;;;4.93;74.05
83716;BME280;73698;51.138;6.950;2024-02-23T06:01:14;98837.88;;;4.96;73.97
83716;BME280;73698;51.138;6.950;2024-02-23T06:03:39;98833.41;;;4.97;73.23
83716;BME280;73698;51.138;6.950;2024-02-23T06:06:08;98837.88;;;4.96;73.18
83716;BME280;73698;51.138;6.950;2024-02-23T06:08:34;98833.28;;;4.98;73.97
83716;BME280;73698;51.138;6.950;2024-02-23T06:11:00;98836.91;;;4.97;73.39
83716;BME280;73698;51.138;6.950;2024-02-23T06:13:25;98828.16;;;4.95;74.13
83716;BME280;73698;51.138;6.950;2024-02-23T06:15:51;98819.47;;;4.93;73.02
83716;BME280;73698;51.138;6.950;2024-02-23T06:18:16;98826.59;;;4.93;72.86
83716;BME280;73698;51.138;6.950;2024-02-23T06:20:42;98817.03;;;4.90;72.99
83716;BME280;73698;51.138;6.950;2024-02-23T06:23:08;98822.47;;;4.88;73.63
83716;BME280;73698;51.138;6.950;2024-02-23T06:25:33;98818.22;;;4.86;74.21
83716;BME280;73698;51.138;6.950;2024-02-23T06:27:58;98812.91;;;4.86;72.90
83716;BME280;73698;51.138;6.950;2024-02-23T06:30:24;98816.91;;;4.92;73.23
83716;BME280;73698;51.138;6.950;2024-02-23T06:32:49;98825.84;;;4.90;73.72
83716;BME280;73698;51.138;6.950;2024-02-23T06:35:15;98822.56;;;4.87;74.16
83716;BME280;73698;51.138;6.950;2024-02-23T06:37:40;98820.03;;;4.85;73.96
83716;BME280;73698;51.138;6.950;2024-02-23T06:40:06;98826.44;;;4.83;74.48
83716;BME280;73698;51.138;6.950;2024-02-23T06:42:33;98832.50;;;4.85;74.54
83716;BME280;73698;51.138;6.950;2024-02-23T06:44:58;98831.66;;;4.84;74.53
83716;BME280;73698;51.138;6.950;2024-02-23T06:47:24;98821.00;;;4.84;74.67
83716;BME280;73698;51.138;6.950;2024-02-23T06:49:50;98826.44;;;4.83;75.38
83716;BME280;73698;51.138;6.950;2024-02-23T06:52:16;98823.69;;;4.84;73.79
83716;BME280;73698;51.138;6.950;2024-02-23T06:54:42;98829.94;;;4.83;75.13
83716;BME280;73698;51.138;6.950;2024-02-23T06:57:07;98819.63;;;4.79;74.45
83716;BME280;73698;51.138;6.950;2024-02-23T06:59:33;98815.50;;;4.75;74.78
83716;BME280;73698;51.138;6.950;2024-02-23T07:01:58;98822.38;;;4.66;74.62
83716;BME280;73698;51.138;6.950;2024-02-23T07:04:23;98816.78;;;4.58;75.46
83716;BME280;73698;51.138;6.950;2024-02-23T07:06:50;98809.84;;;4.55;76.06
83716;BME280;73698;51.138;6.950;2024-02-23T07:09:15;98810.81;;;4.54;75.52
83716;BME280;73698;51.138;6.950;2024-02-23T07:11:41;98804.88;;;4.51;75.53
83716;BME280;73698;51.138;6.950;2024-02-23T07:14:09;98812.94;;;4.49;75.93
83716;BME280;73698;51.138;6.950;2024-02-23T07:16:38;98819.16;;;4.50;76.18
83716;BME280;73698;51.138;6.950;2024-02-23T07:19:04;98815.53;;;4.51;76.38
83716;BME280;73698;51.138;6.950;2024-02-23T07:21:30;98807.75;;;4.48;76.56
83716;BME280;73698;51.138;6.950;2024-02-23T07:23:55;98801.69;;;4.46;76.47
83716;BME280;73698;51.138;6.950;2024-02-23T07:26:21;98822.03;;;4.47;76.16
83716;BME280;73698;51.138;6.950;2024-02-23T07:28:47;98813.84;;;4.50;75.96
83716;BME280;73698;51.138;6.950;2024-02-23T07:31:13;98812.50;;;4.55;76.25
83716;BME280;73698;51.138;6.950;2024-02-23T07:33:39;98816.03;;;4.56;77.17
83716;BME280;73698;51.138;6.950;2024-02-23T07:36:05;98804.53;;;4.55;76.35
83716;BME280;73698;51.138;6.950;2024-02-23T07:38:30;98810.69;;;4.56;76.23
83716;BME280;73698;51.138;6.950;2024-02-23T07:40:55;98812.28;;;4.58;76.08
83716;BME280;73698;51.138;6.950;2024-02-23T07:43:21;98809.41;;;4.61;75.97
83716;BME280;73698;51.138;6.950;2024-02-23T07:45:46;98817.41;;;4.61;76.42
83716;BME280;73698;51.138;6.950;2024-02-23T07:48:11;98815.59;;;4.62;76.15
83716;BME280;73698;51.138;6.950;2024-02-23T07:50:37;98803.22;;;4.61;76.14
83716;BME280;73698;51.138;6.950;2024-02-23T07:53:03;98810.00;;;4.65;76.65
83716;BME280;73698;51.138;6.950;2024-02-23T07:55:29;98816.91;;;4.68;76.38
83716;BME280;73698;51.138;6.950;2024-02-23T07:57:55;98809.56;;;4.71;75.78
83716;BME280;73698;51.138;6.950;2024-02-23T08:00:26;98810.81;;;4.78;75.43
83716;BME280;73698;51.138;6.950;2024-02-23T08:02:51;98820.13;;;4.84;75.56
83716;BME280;73698;51.138;6.950;2024-02-23T08:05:17;98815.13;;;4.92;75.67
83716;BME280;73698;51.138;6.950;2024-02-23T08:07:42;98825.19;;;5.00;75.19
83716;BME280;73698;51.138;6.950;2024-02-23T08:10:08;98812.84;;;5.10;75.00
83716;BME280;73698;51.138;6.950;2024-02-23T08:12:34;98818.34;;;5.20;74.29
83716;BME280;73698;51.138;6.950;2024-02-23T08:15:00;98818.13;;;5.34;74.13
83716;BME280;73698;51.138;6.950;2024-02-23T08:17:25;98820.81;;;5.56;73.33
83716;BME280;73698;51.138;6.950;2024-02-23T08:19:51;98821.59;;;5.81;72.61
83716;BME280;73698;51.138;6.950;2024-02-23T08:22:16;98833.63;;;5.98;71.89
83716;BME280;73698;51.138;6.950;2024-02-23T08:24:42;98826.59;;;6.08;71.43
83716;BME280;73698;51.138;6.950;2024-02-23T08:27:07;98825.63;;;6.09;71.89
83716;BME280;73698;51.138;6.950;2024-02-23T08:29:32;98824.41;;;6.02;70.43
83716;BME280;73698;51.138;6.950;2024-02-23T08:31:58;98828.16;;;5.99;70.84
83716;BME280;73698;51.138;6.950;2024-02-23T08:34:23;98814.94;;;5.98;70.63
83716;BME280;73698;51.138;6.950;2024-02-23T08:36:49;98807.41;;;6.03;70.87
83716;BME280;73698;51.138;6.950;2024-02-23T08:39:15;98815.31;;;6.04;72.00
83716;BME280;73698;51.138;6.950;2024-02-23T08:41:40;98816.53;;;6.11;70.98
83716;BME280;73698;51.138;6.950;2024-02-23T08:44:06;98824.63;;;6.21;70.82
83716;BME280;73698;51.138;6.950;2024-02-23T08:46:34;98829.94;;;6.32;70.58
83716;BME280;73698;51.138;6.950;2024-02-23T08:48:59;98817.81;;;6.40;71.19
83716;BME280;73698;51.138;6.950;2024-02-23T08:51:25;98832.59;;;6.44;68.95
83716;BME280;73698;51.138;6.950;2024-02-23T08:53:50;98837.06;;;6.54;70.46
83716;BME280;73698;51.138;6.950;2024-02-23T08:56:15;98826.44;;;6.75;70.13
83716;BME280;73698;51.138;6.950;2024-02-23T08:58:41;98833.09;;;6.92;67.73
83716;BME280;73698;51.138;6.950;2024-02-23T09:01:06;98833.16;;;7.02;66.75
83716;BME280;73698;51.138;6.950;2024-02-23T09:03:32;98848.44;;;7.11;67.69
83716;BME280;73698;51.138;6.950;2024-02-23T09:05:57;98851.09;;;7.11;67.88
83716;BME280;73698;51.138;6.950;2024-02-23T09:08:23;98851.34;;;7.08;68.61
83716;BME280;73698;51.138;6.950;2024-02-23T09:10:48;98843.19;;;7.09;67.52
83716;BME280;73698;51.138;6.950;2024-02-23T09:13:13;98845.16;;;7.07;67.20
83716;BME280;73698;51.138;6.950;2024-02-23T09:15:40;98845.16;;;7.07;68.39
83716;BME280;73698;51.138;6.950;2024-02-23T09:18:07;98842.22;;;7.10;68.38
83716;BME280;73698;51.138;6.950;2024-02-23T09:20:33;98840.63;;;7.19;67.21
83716;BME280;73698;51.138;6.950;2024-02-23T09:22:58;98852.00;;;7.21;66.64
83716;BME280;73698;51.138;6.950;2024-02-23T09:25:24;98853.59;;;7.24;67.57
83716;BME280;73698;51.138;6.950;2024-02-23T09:27:49;98842.00;;;7.34;67.84
83716;BME280;73698;51.138;6.950;2024-02-23T09:30:14;98843.72;;;7.45;66.99
83716;BME280;73698;51.138;6.950;2024-02-23T09:32:41;98844.66;;;7.55;65.54
83716;BME280;73698;51.138;6.950;2024-02-23T09:35:07;98843.78;;;7.76;65.97
83716;BME280;73698;51.138;6.950;2024-02-23T09:37:32;98842.16;;;7.85;64.83
83716;BME280;73698;51.138;6.950;2024-02-23T09:39:58;98848.22;;;7.87;65.15
83716;BME280;73698;51.138;6.950;2024-02-23T09:42:23;98837.28;;;7.99;64.54
83716;BME280;73698;51.138;6.950;2024-02-23T09:44:58;98843.78;;;8.06;65.86
83716;BME280;73698;51.138;6.950;2024-02-23T09:47:26;98843.28;;;8.13;65.27
83716;BME280;73698;51.138;6.950;2024-02-23T09:49:52;98837.50;;;8.17;65.52
83716;BME280;73698;51.138;6.950;2024-02-23T09:52:18;98835.56;;;8.19;64.73
83716;BME280;73698;51.138;6.950;2024-02-23T09:54:44;98841.59;;;8.21;64.68
83716;BME280;73698;51.138;6.950;2024-02-23T09:57:10;98848.78;;;8.21;65.06
83716;BME280;73698;51.138;6.950;2024-02-23T09:59:35;98845.69;;;8.25;64.07
83716;BME280;73698;51.138;6.950;2024-02-23T10:02:02;98844.34;;;8.31;64.06
83716;BME280;73698;51.138;6.950;2024-02-23T10:04:32;98840.34;;;8.25;63.85
83716;BME280;73698;51.138;6.950;2024-02-23T10:06:57;98839.50;;;8.25;62.35
83716;BME280;73698;51.138;6.950;2024-02-23T10:09:23;98842.00;;;8.17;62.03
83716;BME280;73698;51.138;6.950;2024-02-23T10:11:54;98847.38;;;8.17;63.64
83716;BME280;73698;51.138;6.950;2024-02-23T10:14:20;98846.78;;;8.13;63.72
83716;BME280;73698;51.138;6.950;2024-02-23T10:16:46;98843.03;;;8.25;64.47
83716;BME280;73698;51.138;6.950;2024-02-23T10:19:12;98844.06;;;8.34;63.97
83716;BME280;73698;51.138;6.950;2024-02-23T10:21:37;98850.72;;;8.40;63.35
83716;BME280;73698;51.138;6.950;2024-02-23T10:24:02;98851.16;;;8.45;63.16
83716;BME280;73698;51.138;6.950;2024-02-23T10:26:29;98852.31;;;8.52;63.16
83716;BME280;73698;51.138;6.950;2024-02-23T10:28:55;98856.84;;;8.61;63.79
83716;BME280;73698;51.138;6.950;2024-02-23T10:31:22;98850.09;;;8.67;62.71
83716;BME280;73698;51.138;6.950;2024-02-23T10:33:50;98854.75;;;8.74;63.91
83716;BME280;73698;51.138;6.950;2024-02-23T10:36:17;98854.94;;;8.92;61.64
83716;BME280;73698;51.138;6.950;2024-02-23T10:38:45;98858.19;;;8.96;61.12
83716;BME280;73698;51.138;6.950;2024-02-23T10:41:13;98856.34;;;9.06;61.46
83716;BME280;73698;51.138;6.950;2024-02-23T10:43:46;98871.59;;;9.05;59.90
83716;BME280;73698;51.138;6.950;2024-02-23T10:46:12;98861.00;;;9.04;59.96
83716;BME280;73698;51.138;6.950;2024-02-23T10:48:41;98861.56;;;8.98;60.52
83716;BME280;73698;51.138;6.950;2024-02-23T10:51:07;98861.69;;;8.87;58.82
83716;BME280;73698;51.138;6.950;2024-02-23T10:53:34;98864.22;;;8.78;60.80
83716;BME280;73698;51.138;6.950;2024-02-23T10:56:03;98875.88;;;8.68;59.91
83716;BME280;73698;51.138;6.950;2024-02-23T10:58:29;98863.34;;;8.59;60.25
83716;BME280;73698;51.138;6.950;2024-02-23T11:01:00;98865.38;;;8.45;61.24
83716;BME280;73698;51.138;6.950;2024-02-23T11:03:30;98865.38;;;8.45;60.20
83716;BME280;73698;51.138;6.950;2024-02-23T11:05:56;98860.59;;;8.49;60.70
83716;BME280;73698;51.138;6.950;2024-02-23T11:08:22;98866.13;;;8.47;60.67
83716;BME280;73698;51.138;6.950;2024-02-23T11:10:51;98870.06;;;8.43;61.66
83716;BME280;73698;51.138;6.950;2024-02-23T11:13:36;98861.47;;;8.49;62.36
83716;BME280;73698;51.138;6.950;2024-02-23T11:16:02;98867.38;;;8.53;64.12
83716;BME280;73698;51.138;6.950;2024-02-23T11:18:29;98862.59;;;8.47;63.60
83716;BME280;73698;51.138;6.950;2024-02-23T11:20:55;98859.34;;;8.43;62.39
83716;BME280;73698;51.138;6.950;2024-02-23T11:23:23;98863.50;;;8.36;62.58
83716;BME280;73698;51.138;6.950;2024-02-23T11:28:27;98857.81;;;8.20;63.54
83716;BME280;73698;51.138;6.950;2024-02-23T11:30:53;98861.19;;;8.22;63.61
83716;BME280;73698;51.138;6.950;2024-02-23T11:33:28;98860.81;;;8.26;65.35
83716;BME280;73698;51.138;6.950;2024-02-23T11:36:10;98847.97;;;8.30;64.17
83716;BME280;73698;51.138;6.950;2024-02-23T11:38:36;98866.44;;;8.33;64.31
83716;BME280;73698;51.138;6.950;2024-02-23T11:41:04;98863.78;;;8.33;65.07
83716;BME280;73698;51.138;6.950;2024-02-23T11:43:32;98859.97;;;8.36;64.34
83716;BME280;73698;51.138;6.950;2024-02-23T11:45:59;98861.59;;;8.38;64.63
83716;BME280;73698;51.138;6.950;2024-02-23T11:48:25;98858.22;;;8.46;63.06
83716;BME280;73698;51.138;6.950;2024-02-23T11:50:50;98856.81;;;8.51;64.09
83716;BME280;73698;51.138;6.950;2024-02-23T11:53:16;98859.94;;;8.56;62.22
83716;BME280;73698;51.138;6.950;2024-02-23T11:55:42;98860.34;;;8.52;62.59
83716;BME280;73698;51.138;6.950;2024-02-23T11:58:08;98861.06;;;8.54;62.84
83716;BME280;73698;51.138;6.950;2024-02-23T12:00:34;98849.09;;;8.58;63.57
83716;BME280;73698;51.138;6.950;2024-02-23T12:03:00;98848.41;;;8.66;63.66
83716;BME280;73698;51.138;6.950;2024-02-23T12:05:26;98840.25;;;8.77;63.26
83716;BME280;73698;51.138;6.950;2024-02-23T12:07:52;98846.56;;;8.76;61.11
83716;BME280;73698;51.138;6.950;2024-02-23T12:10:18;98854.19;;;8.71;62.13
83716;BME280;73698;51.138;6.950;2024-02-23T12:12:44;98853.03;;;8.64;61.66
83716;BME280;73698;51.138;6.950;2024-02-23T12:15:09;98858.41;;;8.64;63.49
83716;BME280;73698;51.138;6.950;2024-02-23T12:17:46;98854.34;;;8.69;61.27
83716;BME280;73698;51.138;6.950;2024-02-23T12:20:12;98854.91;;;8.73;61.53
83716;BME280;73698;51.138;6.950;2024-02-23T12:22:37;98860.84;;;8.76;61.20
83716;BME280;73698;51.138;6.950;2024-02-23T12:25:02;98857.72;;;8.71;62.40
83716;BME280;73698;51.138;6.950;2024-02-23T12:27:28;98858.69;;;8.70;61.87
83716;BME280;73698;51.138;6.950;2024-02-23T12:29:54;98852.47;;;8.60;61.96
83716;BME280;73698;51.138;6.950;2024-02-23T12:32:21;98852.31;;;8.52;61.88
83716;BME280;73698;51.138;6.950;2024-02-23T12:34:47;98859.06;;;8.46;61.85
83716;BME280;73698;51.138;6.950;2024-02-23T12:37:16;98862.72;;;8.45;62.17
83716;BME280;73698;51.138;6.950;2024-02-23T12:39:42;98860.44;;;8.41;62.69
83716;BME280;73698;51.138;6.950;2024-02-23T12:42:08;98861.66;;;8.37;63.11
83716;BME280;73698;51.138;6.950;2024-02-23T12:44:33;98859.00;;;8.37;62.50
83716;BME280;73698;51.138;6.950;2024-02-23T12:46:59;98858.22;;;8.46;63.88
83716;BME280;73698;51.138;6.950;2024-02-23T12:49:24;98856.97;;;8.60;62.80
83716;BME280;73698;51.138;6.950;2024-02-23T12:51:49;98861.13;;;8.73;63.03
83716;BME280;73698;51.138;6.950;2024-02-23T12:54:15;98856.91;;;8.80;62.61
83716;BME280;73698;51.138;6.950;2024-02-23T12:56:40;98852.66;;;8.88;61.73
83716;BME280;73698;51.138;6.950;2024-02-23T12:59:06;98858.31;;;8.85;62.29
83716;BME280;73698;51.138;6.950;2024-02-23T13:01:32;98856.31;;;8.87;62.35
83716;BME280;73698;51.138;6.950;2024-02-23T13:04:01;98852.38;;;8.91;62.72
83716;BME280;73698;51.138;6.950;2024-02-23T13:06:27;98856.78;;;8.92;61.71